Crew | Aerofun Virtual



 METAR AND TAF INFORMATION
METAR FOR EFTP
ADDS - METARS form results

(1934 UTC 21 July 2019)
Data provider http://aviationweather.gov/metar/data/
 
METAR text: EFTP 211920Z AUTO 10004KT CAVOK 22/10 Q1015
Conditions at: EFTP (TAMPERE/PIRKKALA, FI) observed 1920 UTC 21 July 2019
Temperature: 22.0°C (72°F)
Dewpoint: 10.0°C (50°F) [RH = 46%]
Pressure (altimeter): 29.97 inches Hg (1015.0 mb)
Winds: from the E (100 degrees) at 5 MPH (4 knots; 2.1 m/s)
Visibility: 6 or more miles (10+ km)
Ceiling: ceiling and visibility are OK
Clouds: unknown
Weather: no significant weather observed at this time

METAR text: EFTP 211850Z AUTO 09004KT CAVOK 23/11 Q1015
Conditions at: EFTP (TAMPERE/PIRKKALA, FI) observed 1850 UTC 21 July 2019
Temperature: 23.0°C (73°F)
Dewpoint: 11.0°C (52°F) [RH = 47%]
Pressure (altimeter): 29.97 inches Hg (1015.0 mb)
Winds: from the E (90 degrees) at 5 MPH (4 knots; 2.1 m/s)
Visibility: 6 or more miles (10+ km)
Ceiling: ceiling and visibility are OK
Clouds: unknown
Weather: no significant weather observed at this time

Forecast for: EFTP (TAMPERE/PIRKKALA, FI)
Text: TAF EFTP 211726Z 2118/2218 10004KT CAVOK
Forecast period: 1800 UTC 21 July 2019 to 1800 UTC 22 July 2019
Forecast type: FROM: standard forecast or significant change
Winds: from the E (100 degrees) at 5 MPH (4 knots; 2.1 m/s)
Visibility: 6 or more miles 10+ km)
Ceiling: unknown
Clouds: missing
Weather: NSW  (no significant weather)

 AIRPORT MAP

 RUNWAY INFORMATION
Runway 06 Runway length 8858 ft Runway width 148 ft
Runway elevation 390 ft Runway displaced threshold 0 ft Runway heading 64
Runway 24 Runway length 8858 ft Runway width 148 ft
Runway elevation 366 ft Runway displaced threshold 0 ft Runway heading 244

 AIRPORT FREQUENCIES
Type APP Name PIRKKALA A Frequency 126.2 MHZ
Type ATIS Name ATIS Frequency 133.55 MHZ
Type TWR Name PIRKKALA T Frequency 118.7 MHZ

 AIRPORT NEAR NAVIGATION AIDS
Type VOR-DME Name Pirkka Frequency 116200 KHZ